createdAt,value
2022-08-09T08:00:55.792Z,5.78
2022-08-09T08:02:19.297Z,7.12
2022-08-09T08:03:38.275Z,5.87
2022-08-09T08:05:01.587Z,5.75
2022-08-09T08:06:22.876Z,9.87
2022-08-09T08:09:00.147Z,6.77
2022-08-09T08:09:18.130Z,6.03
2022-08-09T08:10:34.501Z,5.71
2022-08-09T08:13:14.323Z,4.41
2022-08-09T08:14:36.230Z,4.55
2022-08-09T08:17:35.172Z,6.66
2022-08-09T08:18:44.362Z,9.03
2022-08-09T08:20:12.621Z,5.33
2022-08-09T08:21:39.477Z,7.10
2022-08-09T08:23:03.585Z,4.99
2022-08-09T08:24:40.244Z,6.42
2022-08-09T08:25:50.485Z,6.88
2022-08-09T08:27:16.846Z,10.24
2022-08-09T08:28:35.447Z,6.77
2022-08-09T08:29:56.896Z,7.55
2022-08-09T08:31:19.464Z,7.90
2022-08-09T08:32:53.478Z,10.19
2022-08-09T08:34:05.087Z,14.88
2022-08-09T08:35:37.134Z,14.56
2022-08-09T08:36:53.558Z,13.90
2022-08-09T08:38:16.519Z,15.03
2022-08-09T08:41:05.759Z,12.43
2022-08-09T08:42:32.203Z,7.66
2022-08-09T08:43:48.747Z,4.48
2022-08-09T08:45:13.815Z,5.94
2022-08-09T08:46:59.401Z,7.31
2022-08-09T08:48:02.072Z,4.47
2022-08-09T08:49:38.941Z,6.37
2022-08-09T08:50:52.050Z,6.51
2022-08-09T08:52:24.399Z,5.99
2022-08-09T08:53:37.215Z,5.68
2022-08-09T08:55:03.719Z,5.13
2022-08-09T08:56:28.442Z,5.43
2022-08-09T08:57:56.471Z,7.13
2022-08-09T09:00:27.834Z,4.22
2022-08-09T09:01:53.152Z,5.55
2022-08-09T09:03:22.792Z,5.78
2022-08-09T09:04:47.878Z,7.41
2022-08-09T09:06:04.888Z,5.67
2022-08-09T09:07:27.394Z,11.35
2022-08-09T09:10:13.615Z,7.70
2022-08-09T09:12:58.980Z,10.17
2022-08-09T09:14:22.913Z,9.71
2022-08-09T09:15:49.351Z,9.72
2022-08-09T09:17:10.580Z,10.94
2022-08-09T09:18:33.137Z,10.06
2022-08-09T09:19:55.258Z,7.16
2022-08-09T09:21:18.337Z,7.62
2022-08-09T09:22:52.314Z,6.06
2022-08-09T09:24:21.800Z,6.51
2022-08-09T09:26:01.288Z,9.75
2022-08-09T09:27:04.707Z,4.33
2022-08-09T09:29:01.705Z,6.38
2022-08-09T09:30:14.203Z,5.49
2022-08-09T09:32:03.432Z,8.49
2022-08-09T09:32:41.847Z,4.89
2022-08-09T09:34:14.503Z,11.11
2022-08-09T09:36:58.618Z,7.24
2022-08-09T09:38:27.808Z,17.59
2022-08-09T09:39:55.560Z,9.81
2022-08-09T09:41:26.073Z,9.21
2022-08-09T09:42:56.018Z,10.72
2022-08-09T09:44:27.926Z,9.53
2022-08-09T09:47:16.325Z,8.59
2022-08-09T09:48:37.702Z,7.54
2022-08-09T09:50:15.011Z,6.62
2022-08-09T09:51:38.424Z,6.72
2022-08-09T09:52:56.129Z,12.52
2022-08-09T09:54:21.201Z,6.70
2022-08-09T09:55:57.636Z,6.60
2022-08-09T09:58:01.333Z,8.70
2022-08-09T09:58:45.372Z,8.33
2022-08-09T10:01:30.951Z,6.89
2022-08-09T10:02:48.435Z,5.32
2022-08-09T10:04:16.161Z,7.34
2022-08-09T10:06:03.811Z,8.36
2022-08-09T10:07:23.934Z,11.15
2022-08-09T10:08:55.103Z,9.76
2022-08-09T10:10:09.871Z,7.07
2022-08-09T10:11:59.413Z,7.81
2022-08-09T10:12:56.791Z,11.90
2022-08-09T10:16:55.450Z,9.95
2022-08-09T10:17:50.272Z,7.52
2022-08-09T10:21:19.682Z,11.08
2022-08-09T10:24:03.922Z,10.04
2022-08-09T10:25:25.856Z,7.17
2022-08-09T10:26:51.093Z,6.61
2022-08-09T10:28:13.243Z,8.54
2022-08-09T10:30:29.995Z,9.40
2022-08-09T10:32:42.443Z,7.83
2022-08-09T10:34:08.336Z,7.19
2022-08-09T10:35:13.279Z,6.73
2022-08-09T10:36:38.402Z,7.19
2022-08-09T10:37:59.854Z,5.62
2022-08-09T10:39:28.389Z,5.76
2022-08-09T10:40:50.276Z,6.39
2022-08-09T10:42:10.411Z,5.92
2022-08-09T10:43:36.214Z,5.83
2022-08-09T10:45:11.763Z,5.84
2022-08-09T10:46:55.076Z,10.03
2022-08-09T10:48:29.556Z,5.17
2022-08-09T10:51:29.539Z,5.41
2022-08-09T10:52:54.707Z,4.37
2022-08-09T10:54:23.229Z,6.21
2022-08-09T10:55:58.636Z,6.52
2022-08-09T10:57:12.977Z,5.27
2022-08-09T10:59:58.082Z,5.49
2022-08-09T11:03:10.825Z,7.43
2022-08-09T11:03:17.888Z,4.67
2022-08-09T11:04:31.506Z,7.73
2022-08-09T11:06:18.671Z,6.74
2022-08-09T11:07:58.374Z,8.35
2022-08-09T11:10:53.239Z,8.84
2022-08-09T11:13:51.032Z,7.92
2022-08-09T11:15:34.036Z,13.67
2022-08-09T11:16:55.029Z,12.94
2022-08-09T11:18:42.806Z,14.44
2022-08-09T11:20:19.929Z,17.62
2022-08-09T11:21:57.500Z,9.37
2022-08-09T11:23:15.061Z,6.83
2022-08-09T11:26:04.063Z,8.00
2022-08-09T11:28:04.461Z,5.04
2022-08-09T11:28:59.421Z,4.50
2022-08-09T11:30:33.525Z,6.78
2022-08-09T11:31:52.496Z,6.79
2022-08-09T11:33:22.075Z,4.73
2022-08-09T11:34:44.011Z,3.71
2022-08-09T11:36:07.320Z,4.56
2022-08-09T11:37:31.351Z,4.23
2022-08-09T11:39:01.104Z,6.00
2022-08-09T11:40:29.861Z,4.17
2022-08-09T11:41:58.608Z,4.88
2022-08-09T11:43:32.245Z,4.86
2022-08-09T11:44:57.255Z,5.58
2022-08-09T11:46:32.909Z,7.22
2022-08-09T11:47:49.433Z,7.11
2022-08-09T11:49:17.120Z,4.54
2022-08-09T11:50:55.897Z,5.31
2022-08-09T11:53:04.053Z,6.69
2022-08-09T11:54:01.620Z,5.60
2022-08-09T11:55:35.045Z,4.43
2022-08-09T11:57:59.938Z,5.15
2022-08-09T11:58:59.390Z,6.81
2022-08-09T12:00:27.172Z,5.95
2022-08-09T12:02:16.904Z,7.09
2022-08-09T12:04:59.253Z,7.81
2022-08-09T12:06:26.429Z,7.59
2022-08-09T12:07:43.599Z,6.31
2022-08-09T12:09:17.560Z,6.94
2022-08-09T12:10:39.358Z,6.56
2022-08-09T12:14:08.088Z,4.62
2022-08-09T12:14:40.448Z,7.76
2022-08-09T12:15:59.393Z,18.72
2022-08-09T12:17:34.733Z,16.05
2022-08-09T12:18:49.005Z,10.73
2022-08-09T12:21:39.263Z,7.65
2022-08-09T12:23:02.476Z,9.38
2022-08-09T12:24:24.575Z,11.54
2022-08-09T12:25:50.595Z,6.44
2022-08-09T12:28:58.818Z,4.81
2022-08-09T12:28:58.955Z,5.76
2022-08-09T12:30:35.369Z,5.11
2022-08-09T12:31:58.722Z,5.83
2022-08-09T12:33:04.358Z,5.84
2022-08-09T12:34:40.058Z,6.81
2022-08-09T12:37:24.160Z,6.62
2022-08-09T12:38:39.328Z,8.98
2022-08-09T12:41:36.247Z,4.04
2022-08-09T12:42:54.513Z,7.11
2022-08-09T12:44:15.973Z,10.01
2022-08-09T12:45:39.482Z,7.49
2022-08-09T12:47:03.031Z,11.17
2022-08-09T12:48:37.356Z,7.16
2022-08-09T12:49:51.141Z,10.69
2022-08-09T12:51:14.434Z,11.48
2022-08-09T12:54:12.388Z,6.97
2022-08-09T12:56:15.820Z,8.73
2022-08-09T12:57:00.965Z,6.14
2022-08-09T12:58:27.412Z,7.11
2022-08-09T13:00:02.960Z,8.55
2022-08-09T13:01:26.777Z,6.84
2022-08-09T13:02:53.294Z,9.60
2022-08-09T13:04:36.668Z,7.19
2022-08-09T13:05:51.565Z,5.37
2022-08-09T13:07:13.949Z,7.51
2022-08-09T13:08:40.540Z,6.01
2022-08-09T13:11:30.197Z,5.24
2022-08-09T13:13:10.172Z,10.06
2022-08-09T13:14:41.299Z,8.22
2022-08-09T13:15:57.400Z,9.97
2022-08-09T13:17:43.895Z,10.56
2022-08-09T13:18:47.032Z,11.92
2022-08-09T13:20:18.700Z,8.52
2022-08-09T13:22:35.771Z,6.69
2022-08-09T13:23:05.655Z,8.72
2022-08-09T13:24:44.640Z,4.66
2022-08-09T13:27:39.476Z,6.80
2022-08-09T13:32:13.457Z,5.68
2022-08-09T13:32:49.020Z,5.11
2022-08-09T13:34:10.725Z,8.67
2022-08-09T13:35:34.472Z,6.16
2022-08-09T13:38:17.557Z,7.07
2022-08-09T13:41:50.484Z,9.29
2022-08-09T13:42:11.926Z,6.59
2022-08-09T13:45:12.378Z,5.57
2022-08-09T13:47:16.642Z,7.66
2022-08-09T13:47:59.235Z,6.99
2022-08-09T13:49:20.828Z,11.18
2022-08-09T13:50:42.213Z,5.68
2022-08-09T13:52:05.154Z,3.32
2022-08-09T13:53:39.622Z,5.00
2022-08-09T13:55:00.785Z,8.18
2022-08-09T13:56:18.228Z,5.42
2022-08-09T13:57:43.116Z,8.48
2022-08-09T13:59:04.614Z,8.59
2022-08-09T14:00:28.582Z,3.34
2022-08-09T14:03:04.610Z,8.13
2022-08-09T14:04:24.098Z,5.51
2022-08-09T14:05:58.605Z,4.37
2022-08-09T14:07:12.926Z,6.07
2022-08-09T14:08:34.235Z,3.08
2022-08-09T14:09:55.655Z,3.13
2022-08-09T14:11:17.187Z,4.11
2022-08-09T14:12:38.649Z,3.47
2022-08-09T14:14:22.719Z,5.07
2022-08-09T14:16:07.220Z,4.91
2022-08-09T14:16:48.487Z,4.15
2022-08-09T14:18:19.525Z,3.71
2022-08-09T14:19:33.158Z,6.61
2022-08-09T14:20:55.470Z,3.63
2022-08-09T14:22:18.006Z,3.71
2022-08-09T14:23:53.483Z,3.60
2022-08-09T14:25:03.595Z,8.81
2022-08-09T14:26:32.865Z,4.43
2022-08-09T14:27:57.182Z,5.25
2022-08-09T14:30:15.170Z,3.81
2022-08-09T14:30:41.842Z,4.03
2022-08-09T14:32:13.121Z,3.89
2022-08-09T14:33:29.513Z,5.88
2022-08-09T14:34:55.567Z,6.11
2022-08-09T14:36:20.905Z,7.25
2022-08-09T14:37:41.061Z,5.74
2022-08-09T14:39:04.333Z,5.29
2022-08-09T14:41:00.328Z,7.07
2022-08-09T14:41:51.932Z,5.28
2022-08-09T14:43:15.926Z,4.01
2022-08-09T14:44:48.864Z,3.34
2022-08-09T14:46:55.487Z,5.27
2022-08-09T14:47:41.321Z,3.61
2022-08-09T14:48:48.469Z,4.59
2022-08-09T14:50:12.767Z,3.61
2022-08-09T14:51:42.561Z,6.81
2022-08-09T14:53:00.209Z,4.27
2022-08-09T14:54:22.814Z,4.63
2022-08-09T14:55:50.063Z,4.53
2022-08-09T14:57:09.801Z,5.07
2022-08-09T14:58:32.470Z,3.67
2022-08-09T14:59:55.055Z,3.21
2022-08-09T15:02:37.981Z,3.91
2022-08-09T15:03:59.865Z,5.48
2022-08-09T15:05:23.234Z,5.32
2022-08-09T15:06:49.713Z,2.76
2022-08-09T15:08:10.371Z,4.09
2022-08-09T15:10:07.711Z,2.78
2022-08-09T15:11:01.055Z,2.72
2022-08-09T15:12:18.666Z,3.36
2022-08-09T15:13:56.042Z,2.84
2022-08-09T15:15:08.572Z,2.92
2022-08-09T15:16:30.601Z,7.48
2022-08-09T15:17:53.445Z,2.41
2022-08-09T15:19:16.170Z,3.18
2022-08-09T15:22:00.437Z,3.29
2022-08-09T15:22:02.680Z,2.98
2022-08-09T15:24:01.984Z,4.62
2022-08-09T15:24:48.022Z,3.26
2022-08-09T15:26:18.549Z,3.86
2022-08-09T15:27:55.210Z,4.63
2022-08-09T15:28:56.905Z,3.82
2022-08-09T15:30:55.710Z,3.76
2022-08-09T15:31:45.616Z,3.58
2022-08-09T15:33:07.633Z,5.76
2022-08-09T15:34:34.596Z,5.79
2022-08-09T15:36:02.199Z,7.12
2022-08-09T15:37:18.115Z,4.28
2022-08-09T15:38:41.538Z,4.41
2022-08-09T15:40:12.719Z,3.62
2022-08-09T15:42:56.744Z,2.81
2022-08-09T15:44:19.665Z,5.37
2022-08-09T15:46:07.420Z,3.81
2022-08-09T15:47:14.554Z,4.23
2022-08-09T15:48:32.882Z,3.71
2022-08-09T15:50:04.057Z,2.71
2022-08-09T15:51:44.647Z,2.49
2022-08-09T15:52:54.634Z,2.80
2022-08-09T15:54:31.424Z,3.48
2022-08-09T15:55:34.558Z,4.56
2022-08-09T15:56:57.143Z,4.11
2022-08-09T15:58:27.188Z,3.21
2022-08-09T15:59:51.480Z,3.07
2022-08-09T16:01:07.452Z,4.42
2022-08-09T16:03:52.781Z,3.08
2022-08-09T16:05:17.017Z,6.21
2022-08-09T16:07:49.443Z,2.47
2022-08-09T16:09:12.219Z,3.22
2022-08-09T16:10:54.823Z,3.65
2022-08-09T16:12:00.194Z,3.32
2022-08-09T16:14:05.482Z,2.47
2022-08-09T16:14:46.909Z,3.81
2022-08-09T16:16:17.437Z,3.74
2022-08-09T16:17:33.553Z,3.71
2022-08-09T16:20:19.021Z,2.76
2022-08-09T16:21:52.008Z,5.08
2022-08-09T16:23:11.962Z,2.72
2022-08-09T16:26:02.480Z,3.59
2022-08-09T16:27:20.310Z,2.83
2022-08-09T16:28:41.727Z,3.37
2022-08-09T16:30:06.209Z,2.08
2022-08-09T16:32:10.616Z,2.60
2022-08-09T16:32:54.428Z,3.19
2022-08-09T16:34:16.302Z,3.10
2022-08-09T16:35:56.775Z,3.25
2022-08-09T16:37:07.418Z,3.84
2022-08-09T16:38:32.934Z,3.52
2022-08-09T16:40:04.883Z,4.17
2022-08-09T16:41:24.714Z,6.16
2022-08-09T16:42:45.560Z,5.57
2022-08-09T16:44:06.644Z,7.52
2022-08-09T16:45:31.062Z,6.13
2022-08-09T16:46:55.146Z,4.22
2022-08-09T16:48:40.062Z,6.74
2022-08-09T16:50:31.852Z,3.67
2022-08-09T16:51:07.651Z,5.49
2022-08-09T16:52:26.025Z,5.53
2022-08-09T16:55:31.442Z,4.76
2022-08-09T16:56:53.746Z,4.31
2022-08-09T16:58:17.568Z,4.46
2022-08-09T16:59:44.006Z,4.64
2022-08-09T17:01:02.827Z,3.47
2022-08-09T17:02:26.069Z,4.39
2022-08-09T17:03:49.343Z,3.52
2022-08-09T17:05:11.996Z,6.38
2022-08-09T17:06:47.408Z,4.93
2022-08-09T17:08:45.394Z,5.96
2022-08-09T17:09:45.116Z,4.69
2022-08-09T17:10:48.884Z,5.17
2022-08-09T17:12:14.291Z,8.31
2022-08-09T17:13:35.817Z,5.57
2022-08-09T17:14:58.562Z,7.07
2022-08-09T17:17:50.309Z,4.78
2022-08-09T17:20:50.819Z,4.41
2022-08-09T17:22:08.503Z,6.66
2022-08-09T17:23:37.000Z,3.66
2022-08-09T17:26:14.625Z,3.72
2022-08-09T17:27:39.940Z,3.38
2022-08-09T17:29:04.685Z,3.53
2022-08-09T17:30:28.178Z,2.53
2022-08-09T17:31:50.469Z,4.49
2022-08-09T17:33:22.411Z,2.66
2022-08-09T17:35:07.967Z,3.12
2022-08-09T17:36:04.389Z,5.12
2022-08-09T17:37:29.740Z,4.41
2022-08-09T17:38:52.719Z,3.29
2022-08-09T17:40:18.325Z,3.68
2022-08-09T17:41:42.045Z,4.06
2022-08-09T17:44:38.118Z,6.82
2022-08-09T17:46:04.316Z,6.49
2022-08-09T17:47:18.289Z,6.59
2022-08-09T17:48:52.143Z,7.39
2022-08-09T17:50:17.088Z,4.41
2022-08-09T17:52:49.152Z,4.54
2022-08-09T17:54:15.304Z,5.15
2022-08-09T17:55:50.273Z,6.59
2022-08-09T17:57:04.082Z,3.18
2022-08-09T17:58:28.476Z,4.16
2022-08-09T18:00:04.973Z,4.71
2022-08-09T18:01:23.463Z,3.86
2022-08-09T18:04:05.824Z,3.30
2022-08-09T18:05:38.785Z,2.01
2022-08-09T18:06:58.590Z,3.03
2022-08-09T18:08:22.229Z,4.56
2022-08-09T18:09:44.372Z,4.91
2022-08-09T18:11:08.378Z,3.44
2022-08-09T18:13:38.288Z,2.95
2022-08-09T18:14:05.622Z,3.43
2022-08-09T18:15:27.580Z,2.33
2022-08-09T18:16:50.896Z,2.59
2022-08-09T18:18:25.171Z,5.12
2022-08-09T18:20:56.590Z,5.07
2022-08-09T18:21:18.865Z,3.70
2022-08-09T18:22:34.032Z,3.93
2022-08-09T18:24:10.521Z,4.29
2022-08-09T18:25:45.501Z,3.26
2022-08-09T18:26:49.492Z,5.38
2022-08-09T18:30:34.720Z,3.37
2022-08-09T18:30:40.040Z,3.33
2022-08-09T18:31:05.234Z,3.79
2022-08-09T18:32:30.415Z,4.09
2022-08-09T18:33:53.494Z,4.93
2022-08-09T18:35:17.142Z,4.04
2022-08-09T18:36:39.643Z,6.13
2022-08-09T18:38:05.882Z,7.02
2022-08-09T18:39:32.817Z,5.28
2022-08-09T18:40:55.756Z,5.18
2022-08-09T18:42:19.866Z,4.41
2022-08-09T18:43:52.991Z,4.68
2022-08-09T18:45:21.782Z,4.96
2022-08-09T18:46:47.133Z,4.48
2022-08-09T18:48:03.008Z,4.74
2022-08-09T18:49:28.392Z,4.48
2022-08-09T18:50:54.124Z,4.96
2022-08-09T18:52:18.789Z,3.94
2022-08-09T18:53:56.935Z,5.24
2022-08-09T18:55:29.429Z,4.06
2022-08-09T18:56:45.401Z,5.37
2022-08-09T18:58:10.378Z,6.34
2022-08-09T19:01:09.236Z,7.73
2022-08-09T19:02:34.930Z,6.62
2022-08-09T19:04:06.128Z,6.07
2022-08-09T19:05:48.852Z,8.76
2022-08-09T19:06:50.437Z,6.76
2022-08-09T19:08:14.172Z,7.01
2022-08-09T19:10:13.814Z,5.23
2022-08-09T19:11:07.392Z,10.54
2022-08-09T19:12:31.377Z,4.57
2022-08-09T19:13:54.262Z,6.94
2022-08-09T19:15:19.216Z,5.46
2022-08-09T19:16:50.253Z,4.75
2022-08-09T19:18:16.949Z,4.63
2022-08-09T19:19:58.676Z,5.32
2022-08-09T19:21:52.384Z,6.09
2022-08-09T19:23:03.550Z,5.36
2022-08-09T19:24:37.051Z,7.23
2022-08-09T19:26:06.656Z,5.47
2022-08-09T19:27:46.281Z,7.47
2022-08-09T19:29:20.844Z,6.09
2022-08-09T19:30:47.309Z,7.21
2022-08-09T19:32:14.344Z,8.58
2022-08-09T19:33:38.878Z,6.01
2022-08-09T19:35:01.395Z,5.31
2022-08-09T19:36:30.994Z,5.92
2022-08-09T19:37:56.138Z,5.61
2022-08-09T19:39:16.732Z,6.28
2022-08-09T19:40:40.774Z,8.66
2022-08-09T19:42:05.264Z,5.59
2022-08-09T19:44:00.479Z,4.59
2022-08-09T19:44:56.611Z,6.14
2022-08-09T19:46:34.120Z,6.05
2022-08-09T19:47:44.768Z,4.94
2022-08-09T19:50:08.235Z,5.81
2022-08-09T19:50:49.000Z,5.09
2022-08-09T19:52:01.050Z,6.59
2022-08-09T19:53:26.423Z,5.72
2022-08-09T19:54:53.297Z,7.83
2022-08-09T19:56:17.282Z,6.94
2022-08-09T19:57:42.426Z,7.25
2022-08-09T19:59:39.599Z,5.17
2022-08-09T20:00:37.827Z,5.61
2022-08-09T20:02:08.089Z,4.34
2022-08-09T20:04:11.033Z,8.97
2022-08-09T20:04:55.446Z,4.71
2022-08-09T20:07:59.138Z,14.56
2022-08-09T20:09:45.046Z,14.76
2022-08-09T20:10:51.158Z,16.99
2022-08-09T20:12:33.193Z,12.82
2022-08-09T20:13:37.248Z,11.41
2022-08-09T20:14:59.890Z,10.84
2022-08-09T20:16:37.976Z,8.13
2022-08-09T20:17:54.274Z,7.68
2022-08-09T20:19:47.852Z,6.99
2022-08-09T20:20:40.208Z,6.58
2022-08-09T20:22:09.888Z,6.35
2022-08-09T20:23:39.720Z,8.65
2022-08-09T20:24:53.975Z,8.52
2022-08-09T20:26:18.444Z,9.63
2022-08-09T20:27:42.293Z,8.01
2022-08-09T20:29:18.577Z,6.84
2022-08-09T20:30:28.768Z,9.82
2022-08-09T20:32:17.071Z,7.62
2022-08-09T20:33:16.494Z,6.20
2022-08-09T20:34:42.315Z,8.16
2022-08-09T20:36:06.453Z,6.54
2022-08-09T20:39:28.563Z,7.21
2022-08-09T20:40:19.198Z,7.34
2022-08-09T20:41:39.299Z,9.08
2022-08-09T20:43:18.180Z,8.00
2022-08-09T20:44:26.918Z,7.99
2022-08-09T20:46:00.271Z,6.93
2022-08-09T20:47:45.808Z,8.10
2022-08-09T20:48:37.436Z,10.26
2022-08-09T20:49:59.020Z,9.26
2022-08-09T20:51:25.117Z,6.66
2022-08-09T20:52:47.038Z,8.52
2022-08-09T20:55:22.385Z,6.20
2022-08-09T20:56:49.907Z,7.63
2022-08-09T20:58:20.136Z,5.02
2022-08-09T21:00:20.448Z,5.87
2022-08-09T21:01:13.590Z,6.11
2022-08-09T21:02:20.638Z,6.26
2022-08-09T21:04:14.177Z,4.66
2022-08-09T21:05:56.697Z,6.14
2022-08-09T21:06:31.550Z,3.43
2022-08-09T21:07:56.175Z,4.95
2022-08-09T21:09:38.127Z,3.59
2022-08-09T21:10:43.133Z,4.96
2022-08-09T21:13:30.499Z,5.22
2022-08-09T21:14:57.424Z,6.27
2022-08-09T21:16:19.512Z,3.51
2022-08-09T21:18:11.053Z,2.88
2022-08-09T21:20:17.856Z,4.00
2022-08-09T21:20:31.485Z,5.01
2022-08-09T21:21:56.288Z,10.16
2022-08-09T21:23:16.508Z,8.34
2022-08-09T21:24:37.897Z,10.04
2022-08-09T21:26:03.368Z,34.73
2022-08-09T21:28:01.177Z,51.67
2022-08-09T21:28:55.460Z,36.04
2022-08-09T21:30:13.360Z,41.55
2022-08-09T21:31:48.798Z,74.20
2022-08-09T21:33:00.160Z,34.49
2022-08-09T21:34:29.250Z,30.11
2022-08-09T21:35:51.172Z,15.47
2022-08-09T21:37:18.135Z,16.15
2022-08-09T21:38:32.264Z,15.48
2022-08-09T21:39:53.758Z,10.53
2022-08-09T21:41:19.148Z,8.69
2022-08-09T21:42:42.579Z,9.24
2022-08-09T21:44:07.282Z,7.83
2022-08-09T21:45:30.550Z,3.63
2022-08-09T21:46:54.461Z,4.91
2022-08-09T21:48:16.777Z,5.29
2022-08-09T21:49:40.429Z,3.07
2022-08-09T21:51:01.297Z,3.31
2022-08-09T21:53:47.702Z,3.67
2022-08-09T21:55:10.300Z,4.06
2022-08-09T21:56:54.040Z,4.15
2022-08-09T21:57:59.039Z,6.48
2022-08-09T21:59:26.717Z,8.39
2022-08-09T22:00:52.334Z,5.97
2022-08-09T22:02:13.195Z,7.90
2022-08-09T22:03:36.692Z,8.16
2022-08-09T22:05:08.863Z,4.96
2022-08-09T22:06:23.940Z,5.44
2022-08-09T22:07:52.281Z,6.10
2022-08-09T22:09:11.032Z,5.06
2022-08-09T22:10:33.456Z,7.74
2022-08-09T22:12:17.810Z,4.74
2022-08-09T22:13:18.876Z,5.52
2022-08-09T22:14:40.733Z,5.53
2022-08-09T22:16:04.947Z,5.80
2022-08-09T22:17:32.188Z,3.26
2022-08-09T22:18:54.930Z,4.78
2022-08-09T22:20:21.971Z,3.72
2022-08-09T22:21:49.959Z,4.61
2022-08-09T22:24:16.972Z,2.47
2022-08-09T22:26:05.463Z,3.44
2022-08-09T22:27:04.687Z,5.38
2022-08-09T22:28:33.034Z,2.96
2022-08-09T22:29:50.164Z,3.78
2022-08-09T22:31:11.510Z,5.16
2022-08-09T22:32:33.977Z,4.98
2022-08-09T22:33:56.663Z,5.69
2022-08-09T22:36:01.740Z,3.94
2022-08-09T22:36:45.976Z,3.11
2022-08-09T22:38:07.662Z,2.72
2022-08-09T22:39:58.004Z,4.81
2022-08-09T22:40:57.971Z,5.44
2022-08-09T22:42:22.447Z,6.73
2022-08-09T22:44:03.683Z,3.81
2022-08-09T22:48:10.308Z,4.27
2022-08-09T22:48:14.265Z,4.87
2022-08-09T22:48:16.321Z,5.84
2022-08-09T22:49:14.708Z,3.63
2022-08-09T22:50:37.040Z,3.88
2022-08-09T22:51:58.337Z,3.39
2022-08-09T22:53:21.463Z,3.57
2022-08-09T22:54:46.905Z,3.26
2022-08-09T22:56:31.238Z,4.82
2022-08-09T22:57:35.520Z,3.01
2022-08-09T22:58:55.162Z,5.59
2022-08-09T23:00:19.999Z,3.91
2022-08-09T23:01:43.161Z,4.03
2022-08-09T23:03:12.450Z,5.13
2022-08-09T23:04:32.611Z,4.14
2022-08-09T23:05:52.963Z,3.94
2022-08-09T23:07:16.344Z,4.56
2022-08-09T23:09:47.163Z,4.50
2022-08-09T23:11:08.650Z,3.88
2022-08-09T23:12:30.337Z,4.91
2022-08-09T23:13:55.136Z,4.84
2022-08-09T23:15:16.623Z,4.59
2022-08-09T23:16:37.786Z,3.84
2022-08-09T23:18:01.251Z,4.39
2022-08-09T23:19:22.555Z,6.26
2022-08-09T23:20:43.999Z,2.44
2022-08-09T23:22:05.196Z,4.98
2022-08-09T23:23:26.519Z,4.22
2022-08-09T23:24:48.634Z,3.87
2022-08-09T23:26:10.692Z,7.62
2022-08-09T23:27:32.512Z,2.58
2022-08-09T23:28:54.013Z,3.62
2022-08-09T23:30:16.969Z,3.23
2022-08-09T23:32:49.804Z,4.31
2022-08-09T23:34:11.364Z,3.99
2022-08-09T23:36:05.013Z,4.43
2022-08-09T23:36:55.944Z,4.50
2022-08-09T23:39:29.176Z,4.79
2022-08-09T23:40:50.704Z,5.37
2022-08-09T23:42:11.811Z,4.40
2022-08-09T23:43:33.100Z,4.92
2022-08-09T23:44:54.372Z,3.56
2022-08-09T23:46:16.801Z,3.22
2022-08-09T23:47:38.287Z,3.53
2022-08-09T23:48:59.874Z,3.96
2022-08-09T23:50:22.478Z,5.04
2022-08-09T23:51:43.722Z,5.32
2022-08-09T23:53:05.574Z,2.76
2022-08-09T23:54:27.550Z,3.05
2022-08-09T23:55:54.533Z,2.88
2022-08-09T23:57:12.945Z,4.52
2022-08-09T23:58:35.865Z,4.14
2022-08-09T23:59:57.042Z,5.99
